sensor_id;sensor_type;location;lat;lon;timestamp;P1;durP1;ratioP1;P2;durP2;ratioP2
49948;SDS011;35840;45.982;8.890;2023-02-22T00:01:33;28.92;;;18.02;;
49948;SDS011;35840;45.982;8.890;2023-02-22T00:04:01;26.77;;;17.85;;
49948;SDS011;35840;45.982;8.890;2023-02-22T00:06:30;28.27;;;17.63;;
49948;SDS011;35840;45.982;8.890;2023-02-22T00:08:57;24.92;;;18.13;;
49948;SDS011;35840;45.982;8.890;2023-02-22T00:11:25;26.83;;;17.40;;
49948;SDS011;35840;45.982;8.890;2023-02-22T00:13:52;29.10;;;17.90;;
49948;SDS011;35840;45.982;8.890;2023-02-22T00:16:23;24.65;;;16.77;;
49948;SDS011;35840;45.982;8.890;2023-02-22T00:18:51;26.52;;;16.58;;
49948;SDS011;35840;45.982;8.890;2023-02-22T00:21:19;24.95;;;16.92;;
49948;SDS011;35840;45.982;8.890;2023-02-22T00:23:47;26.95;;;16.15;;
49948;SDS011;35840;45.982;8.890;2023-02-22T00:26:15;21.23;;;16.17;;
49948;SDS011;35840;45.982;8.890;2023-02-22T00:28:46;25.40;;;17.17;;
49948;SDS011;35840;45.982;8.890;2023-02-22T00:31:14;28.63;;;17.38;;
49948;SDS011;35840;45.982;8.890;2023-02-22T00:33:42;32.88;;;20.42;;
49948;SDS011;35840;45.982;8.890;2023-02-22T00:36:10;34.33;;;20.90;;
49948;SDS011;35840;45.982;8.890;2023-02-22T00:38:38;30.73;;;22.00;;
49948;SDS011;35840;45.982;8.890;2023-02-22T00:41:06;32.85;;;21.65;;
49948;SDS011;35840;45.982;8.890;2023-02-22T00:43:33;38.17;;;22.23;;
49948;SDS011;35840;45.982;8.890;2023-02-22T00:46:00;29.90;;;20.60;;
49948;SDS011;35840;45.982;8.890;2023-02-22T00:48:27;30.98;;;20.38;;
49948;SDS011;35840;45.982;8.890;2023-02-22T00:50:54;31.38;;;21.02;;
49948;SDS011;35840;45.982;8.890;2023-02-22T00:53:22;34.10;;;20.67;;
49948;SDS011;35840;45.982;8.890;2023-02-22T00:55:51;31.45;;;21.48;;
49948;SDS011;35840;45.982;8.890;2023-02-22T00:58:18;32.35;;;21.65;;
49948;SDS011;35840;45.982;8.890;2023-02-22T01:00:45;31.88;;;22.50;;
49948;SDS011;35840;45.982;8.890;2023-02-22T01:03:13;34.65;;;22.00;;
49948;SDS011;35840;45.982;8.890;2023-02-22T01:05:42;37.92;;;22.05;;
49948;SDS011;35840;45.982;8.890;2023-02-22T01:08:10;33.00;;;20.88;;
49948;SDS011;35840;45.982;8.890;2023-02-22T01:10:38;33.38;;;21.02;;
49948;SDS011;35840;45.982;8.890;2023-02-22T01:13:06;37.03;;;21.15;;
49948;SDS011;35840;45.982;8.890;2023-02-22T01:15:37;30.98;;;21.35;;
49948;SDS011;35840;45.982;8.890;2023-02-22T01:18:06;30.92;;;21.52;;
49948;SDS011;35840;45.982;8.890;2023-02-22T01:20:34;37.03;;;22.02;;
49948;SDS011;35840;45.982;8.890;2023-02-22T01:23:02;33.28;;;21.60;;
49948;SDS011;35840;45.982;8.890;2023-02-22T01:25:32;32.97;;;21.63;;
49948;SDS011;35840;45.982;8.890;2023-02-22T01:28:01;37.50;;;21.80;;
49948;SDS011;35840;45.982;8.890;2023-02-22T01:30:30;31.00;;;19.30;;
49948;SDS011;35840;45.982;8.890;2023-02-22T01:32:58;29.23;;;19.42;;
49948;SDS011;35840;45.982;8.890;2023-02-22T01:35:28;28.85;;;20.23;;
49948;SDS011;35840;45.982;8.890;2023-02-22T01:37:56;26.42;;;16.85;;
49948;SDS011;35840;45.982;8.890;2023-02-22T01:40:27;26.88;;;16.48;;
49948;SDS011;35840;45.982;8.890;2023-02-22T01:43:00;23.33;;;16.27;;
49948;SDS011;35840;45.982;8.890;2023-02-22T01:47:57;25.23;;;16.30;;
49948;SDS011;35840;45.982;8.890;2023-02-22T01:50:29;22.58;;;14.27;;
49948;SDS011;35840;45.982;8.890;2023-02-22T01:53:00;25.33;;;16.52;;
49948;SDS011;35840;45.982;8.890;2023-02-22T01:55:27;27.02;;;18.23;;
49948;SDS011;35840;45.982;8.890;2023-02-22T01:57:55;30.13;;;19.60;;
49948;SDS011;35840;45.982;8.890;2023-02-22T02:00:22;30.58;;;19.88;;
49948;SDS011;35840;45.982;8.890;2023-02-22T02:02:57;30.27;;;19.23;;
49948;SDS011;35840;45.982;8.890;2023-02-22T02:05:28;28.60;;;18.95;;
49948;SDS011;35840;45.982;8.890;2023-02-22T02:07:57;33.72;;;18.77;;
49948;SDS011;35840;45.982;8.890;2023-02-22T02:10:28;30.88;;;17.67;;
49948;SDS011;35840;45.982;8.890;2023-02-22T02:12:57;22.80;;;15.98;;
49948;SDS011;35840;45.982;8.890;2023-02-22T02:17:54;25.67;;;16.40;;
49948;SDS011;35840;45.982;8.890;2023-02-22T02:20:37;27.85;;;18.25;;
49948;SDS011;35840;45.982;8.890;2023-02-22T02:34:18;20.92;;;14.95;;
49948;SDS011;35840;45.982;8.890;2023-02-22T02:37:16;22.40;;;15.35;;
49948;SDS011;35840;45.982;8.890;2023-02-22T02:40:03;25.10;;;16.25;;
49948;SDS011;35840;45.982;8.890;2023-02-22T02:42:40;25.55;;;15.70;;
49948;SDS011;35840;45.982;8.890;2023-02-22T02:45:21;24.45;;;16.63;;
49948;SDS011;35840;45.982;8.890;2023-02-22T02:47:54;24.25;;;16.83;;
49948;SDS011;35840;45.982;8.890;2023-02-22T02:50:28;24.73;;;15.23;;
49948;SDS011;35840;45.982;8.890;2023-02-22T02:53:00;23.00;;;16.02;;
49948;SDS011;35840;45.982;8.890;2023-02-22T02:55:30;26.85;;;17.23;;
49948;SDS011;35840;45.982;8.890;2023-02-22T02:57:58;23.52;;;16.73;;
49948;SDS011;35840;45.982;8.890;2023-02-22T03:00:27;26.95;;;17.45;;
49948;SDS011;35840;45.982;8.890;2023-02-22T03:03:06;22.90;;;15.93;;
49948;SDS011;35840;45.982;8.890;2023-02-22T03:20:28;25.58;;;16.13;;
49948;SDS011;35840;45.982;8.890;2023-02-22T03:23:09;22.48;;;16.17;;
49948;SDS011;35840;45.982;8.890;2023-02-22T03:25:45;25.40;;;16.67;;
49948;SDS011;35840;45.982;8.890;2023-02-22T03:28:17;31.92;;;17.58;;
49948;SDS011;35840;45.982;8.890;2023-02-22T03:30:49;25.55;;;17.05;;
49948;SDS011;35840;45.982;8.890;2023-02-22T03:33:24;22.13;;;16.65;;
49948;SDS011;35840;45.982;8.890;2023-02-22T03:36:15;26.45;;;17.05;;
49948;SDS011;35840;45.982;8.890;2023-02-22T03:38:47;23.50;;;17.15;;
49948;SDS011;35840;45.982;8.890;2023-02-22T03:41:16;27.00;;;17.15;;
49948;SDS011;35840;45.982;8.890;2023-02-22T03:43:53;22.52;;;16.48;;
49948;SDS011;35840;45.982;8.890;2023-02-22T03:46:25;25.30;;;15.75;;
49948;SDS011;35840;45.982;8.890;2023-02-22T03:49:02;26.02;;;17.00;;
49948;SDS011;35840;45.982;8.890;2023-02-22T03:51:37;24.67;;;15.82;;
49948;SDS011;35840;45.982;8.890;2023-02-22T03:54:05;25.75;;;16.73;;
49948;SDS011;35840;45.982;8.890;2023-02-22T03:56:37;22.50;;;15.80;;
49948;SDS011;35840;45.982;8.890;2023-02-22T03:59:12;22.33;;;14.20;;
49948;SDS011;35840;45.982;8.890;2023-02-22T04:01:40;21.70;;;14.50;;
49948;SDS011;35840;45.982;8.890;2023-02-22T04:04:07;23.58;;;13.60;;
49948;SDS011;35840;45.982;8.890;2023-02-22T04:06:36;21.63;;;13.40;;
49948;SDS011;35840;45.982;8.890;2023-02-22T04:09:03;20.88;;;14.80;;
49948;SDS011;35840;45.982;8.890;2023-02-22T04:11:30;26.25;;;13.88;;
49948;SDS011;35840;45.982;8.890;2023-02-22T04:13:58;17.70;;;13.32;;
49948;SDS011;35840;45.982;8.890;2023-02-22T04:16:26;20.50;;;13.25;;
49948;SDS011;35840;45.982;8.890;2023-02-22T04:18:53;24.35;;;14.60;;
49948;SDS011;35840;45.982;8.890;2023-02-22T04:21:20;19.02;;;12.63;;
49948;SDS011;35840;45.982;8.890;2023-02-22T04:23:48;19.63;;;13.75;;
49948;SDS011;35840;45.982;8.890;2023-02-22T04:26:16;25.13;;;14.25;;
49948;SDS011;35840;45.982;8.890;2023-02-22T04:28:49;26.40;;;13.52;;
49948;SDS011;35840;45.982;8.890;2023-02-22T04:31:17;17.48;;;12.18;;
49948;SDS011;35840;45.982;8.890;2023-02-22T04:33:45;18.60;;;12.57;;
49948;SDS011;35840;45.982;8.890;2023-02-22T04:36:15;19.67;;;12.93;;
49948;SDS011;35840;45.982;8.890;2023-02-22T04:38:43;17.88;;;12.85;;
49948;SDS011;35840;45.982;8.890;2023-02-22T04:41:10;20.85;;;13.63;;
49948;SDS011;35840;45.982;8.890;2023-02-22T04:43:38;23.52;;;13.77;;
49948;SDS011;35840;45.982;8.890;2023-02-22T04:46:17;18.73;;;12.60;;
49948;SDS011;35840;45.982;8.890;2023-02-22T04:48:44;19.15;;;13.60;;
49948;SDS011;35840;45.982;8.890;2023-02-22T04:51:12;20.27;;;13.15;;
49948;SDS011;35840;45.982;8.890;2023-02-22T04:53:49;20.05;;;14.45;;
49948;SDS011;35840;45.982;8.890;2023-02-22T04:56:17;25.05;;;14.35;;
49948;SDS011;35840;45.982;8.890;2023-02-22T04:58:45;23.77;;;14.77;;
49948;SDS011;35840;45.982;8.890;2023-02-22T05:01:12;19.33;;;13.82;;
49948;SDS011;35840;45.982;8.890;2023-02-22T05:03:41;21.23;;;13.80;;
49948;SDS011;35840;45.982;8.890;2023-02-22T05:06:08;21.33;;;13.70;;
49948;SDS011;35840;45.982;8.890;2023-02-22T05:08:37;18.58;;;12.68;;
49948;SDS011;35840;45.982;8.890;2023-02-22T05:11:04;18.17;;;13.15;;
49948;SDS011;35840;45.982;8.890;2023-02-22T05:13:31;22.65;;;13.25;;
49948;SDS011;35840;45.982;8.890;2023-02-22T05:15:58;20.88;;;13.93;;
49948;SDS011;35840;45.982;8.890;2023-02-22T05:18:24;25.30;;;15.80;;
49948;SDS011;35840;45.982;8.890;2023-02-22T05:20:51;28.10;;;16.50;;
49948;SDS011;35840;45.982;8.890;2023-02-22T05:23:18;20.20;;;14.07;;
49948;SDS011;35840;45.982;8.890;2023-02-22T05:25:44;20.60;;;15.18;;
49948;SDS011;35840;45.982;8.890;2023-02-22T05:28:12;21.20;;;14.63;;
49948;SDS011;35840;45.982;8.890;2023-02-22T05:30:40;23.70;;;15.52;;
49948;SDS011;35840;45.982;8.890;2023-02-22T05:33:08;20.55;;;13.65;;
49948;SDS011;35840;45.982;8.890;2023-02-22T05:35:35;24.10;;;14.57;;
49948;SDS011;35840;45.982;8.890;2023-02-22T05:38:05;25.90;;;16.25;;
49948;SDS011;35840;45.982;8.890;2023-02-22T05:40:32;21.67;;;15.40;;
49948;SDS011;35840;45.982;8.890;2023-02-22T05:42:58;21.67;;;15.18;;
49948;SDS011;35840;45.982;8.890;2023-02-22T05:45:26;22.58;;;15.52;;
49948;SDS011;35840;45.982;8.890;2023-02-22T05:47:53;21.58;;;15.15;;
49948;SDS011;35840;45.982;8.890;2023-02-22T05:50:20;23.48;;;16.08;;
49948;SDS011;35840;45.982;8.890;2023-02-22T05:52:47;23.35;;;16.27;;
49948;SDS011;35840;45.982;8.890;2023-02-22T05:55:16;22.65;;;15.75;;
49948;SDS011;35840;45.982;8.890;2023-02-22T05:57:44;24.58;;;15.77;;
49948;SDS011;35840;45.982;8.890;2023-02-22T06:00:15;25.42;;;16.70;;
49948;SDS011;35840;45.982;8.890;2023-02-22T06:05:22;25.30;;;14.82;;
49948;SDS011;35840;45.982;8.890;2023-02-22T06:07:49;27.50;;;16.58;;
49948;SDS011;35840;45.982;8.890;2023-02-22T06:10:16;23.00;;;14.68;;
49948;SDS011;35840;45.982;8.890;2023-02-22T06:12:43;22.42;;;15.32;;
49948;SDS011;35840;45.982;8.890;2023-02-22T06:15:10;20.60;;;14.98;;
49948;SDS011;35840;45.982;8.890;2023-02-22T06:17:36;24.25;;;15.68;;
49948;SDS011;35840;45.982;8.890;2023-02-22T06:20:05;30.63;;;17.90;;
49948;SDS011;35840;45.982;8.890;2023-02-22T06:22:33;25.33;;;16.83;;
49948;SDS011;35840;45.982;8.890;2023-02-22T06:25:01;23.83;;;14.98;;
49948;SDS011;35840;45.982;8.890;2023-02-22T06:27:32;24.92;;;14.90;;
49948;SDS011;35840;45.982;8.890;2023-02-22T06:30:00;26.10;;;16.92;;
49948;SDS011;35840;45.982;8.890;2023-02-22T06:32:27;27.60;;;17.42;;
49948;SDS011;35840;45.982;8.890;2023-02-22T06:34:54;23.27;;;16.75;;
49948;SDS011;35840;45.982;8.890;2023-02-22T06:37:20;25.63;;;16.58;;
49948;SDS011;35840;45.982;8.890;2023-02-22T06:39:47;27.08;;;17.35;;
49948;SDS011;35840;45.982;8.890;2023-02-22T06:42:14;24.65;;;17.05;;
49948;SDS011;35840;45.982;8.890;2023-02-22T06:44:40;25.08;;;16.50;;
49948;SDS011;35840;45.982;8.890;2023-02-22T06:47:07;30.08;;;18.23;;
49948;SDS011;35840;45.982;8.890;2023-02-22T06:49:34;26.55;;;18.02;;
49948;SDS011;35840;45.982;8.890;2023-02-22T06:52:03;25.10;;;17.48;;
49948;SDS011;35840;45.982;8.890;2023-02-22T06:54:30;31.20;;;18.35;;
49948;SDS011;35840;45.982;8.890;2023-02-22T06:56:57;28.48;;;18.05;;
49948;SDS011;35840;45.982;8.890;2023-02-22T06:59:24;21.80;;;16.80;;
49948;SDS011;35840;45.982;8.890;2023-02-22T07:01:51;22.00;;;16.90;;
49948;SDS011;35840;45.982;8.890;2023-02-22T07:04:18;27.38;;;18.58;;
49948;SDS011;35840;45.982;8.890;2023-02-22T07:06:45;28.63;;;18.23;;
49948;SDS011;35840;45.982;8.890;2023-02-22T07:09:12;24.45;;;17.48;;
49948;SDS011;35840;45.982;8.890;2023-02-22T07:11:40;26.17;;;18.23;;
49948;SDS011;35840;45.982;8.890;2023-02-22T07:14:06;28.42;;;18.40;;
49948;SDS011;35840;45.982;8.890;2023-02-22T07:16:33;25.95;;;17.02;;
49948;SDS011;35840;45.982;8.890;2023-02-22T07:19:00;28.23;;;18.85;;
49948;SDS011;35840;45.982;8.890;2023-02-22T07:21:27;26.27;;;16.88;;
49948;SDS011;35840;45.982;8.890;2023-02-22T07:23:55;28.02;;;18.80;;
49948;SDS011;35840;45.982;8.890;2023-02-22T07:26:24;30.58;;;18.20;;
49948;SDS011;35840;45.982;8.890;2023-02-22T07:28:51;28.83;;;19.10;;
49948;SDS011;35840;45.982;8.890;2023-02-22T07:31:18;26.33;;;18.92;;
49948;SDS011;35840;45.982;8.890;2023-02-22T07:33:45;30.35;;;20.02;;
49948;SDS011;35840;45.982;8.890;2023-02-22T07:36:14;30.95;;;18.42;;
49948;SDS011;35840;45.982;8.890;2023-02-22T07:38:43;31.38;;;19.10;;
49948;SDS011;35840;45.982;8.890;2023-02-22T07:41:11;30.98;;;19.88;;
49948;SDS011;35840;45.982;8.890;2023-02-22T07:43:38;25.88;;;18.80;;
49948;SDS011;35840;45.982;8.890;2023-02-22T07:46:05;30.35;;;19.92;;
49948;SDS011;35840;45.982;8.890;2023-02-22T07:48:31;28.98;;;18.90;;
49948;SDS011;35840;45.982;8.890;2023-02-22T07:50:58;30.05;;;20.63;;
49948;SDS011;35840;45.982;8.890;2023-02-22T07:53:27;31.75;;;22.23;;
49948;SDS011;35840;45.982;8.890;2023-02-22T07:55:56;33.83;;;20.92;;
49948;SDS011;35840;45.982;8.890;2023-02-22T07:58:24;30.80;;;21.17;;
49948;SDS011;35840;45.982;8.890;2023-02-22T08:00:52;34.22;;;23.27;;
49948;SDS011;35840;45.982;8.890;2023-02-22T08:03:20;34.10;;;21.50;;
49948;SDS011;35840;45.982;8.890;2023-02-22T08:05:53;32.03;;;20.52;;
49948;SDS011;35840;45.982;8.890;2023-02-22T08:08:21;32.45;;;21.25;;
49948;SDS011;35840;45.982;8.890;2023-02-22T08:10:49;35.35;;;19.55;;
49948;SDS011;35840;45.982;8.890;2023-02-22T08:13:17;28.42;;;20.23;;
49948;SDS011;35840;45.982;8.890;2023-02-22T08:15:44;31.98;;;19.80;;
49948;SDS011;35840;45.982;8.890;2023-02-22T08:18:16;31.08;;;21.60;;
49948;SDS011;35840;45.982;8.890;2023-02-22T08:20:44;29.20;;;19.92;;
49948;SDS011;35840;45.982;8.890;2023-02-22T08:23:13;29.95;;;20.08;;
49948;SDS011;35840;45.982;8.890;2023-02-22T08:25:41;28.60;;;20.15;;
49948;SDS011;35840;45.982;8.890;2023-02-22T08:28:09;31.02;;;19.15;;
49948;SDS011;35840;45.982;8.890;2023-02-22T08:30:37;34.88;;;21.27;;
49948;SDS011;35840;45.982;8.890;2023-02-22T08:33:06;34.97;;;21.92;;
49948;SDS011;35840;45.982;8.890;2023-02-22T08:35:33;30.85;;;20.85;;
49948;SDS011;35840;45.982;8.890;2023-02-22T08:38:01;31.08;;;23.02;;
49948;SDS011;35840;45.982;8.890;2023-02-22T08:40:30;35.63;;;22.48;;
49948;SDS011;35840;45.982;8.890;2023-02-22T08:42:59;32.63;;;20.88;;
49948;SDS011;35840;45.982;8.890;2023-02-22T08:45:27;37.75;;;23.10;;
49948;SDS011;35840;45.982;8.890;2023-02-22T08:47:54;36.38;;;21.17;;
49948;SDS011;35840;45.982;8.890;2023-02-22T08:50:26;40.38;;;24.85;;
49948;SDS011;35840;45.982;8.890;2023-02-22T08:52:54;33.53;;;22.20;;
49948;SDS011;35840;45.982;8.890;2023-02-22T08:55:25;36.03;;;22.98;;
49948;SDS011;35840;45.982;8.890;2023-02-22T08:57:55;40.15;;;24.13;;
49948;SDS011;35840;45.982;8.890;2023-02-22T09:00:22;38.88;;;24.67;;
49948;SDS011;35840;45.982;8.890;2023-02-22T09:02:51;40.17;;;24.55;;
49948;SDS011;35840;45.982;8.890;2023-02-22T09:05:18;35.22;;;24.25;;
49948;SDS011;35840;45.982;8.890;2023-02-22T09:07:45;41.75;;;25.73;;
49948;SDS011;35840;45.982;8.890;2023-02-22T09:10:16;37.72;;;24.95;;
49948;SDS011;35840;45.982;8.890;2023-02-22T09:12:45;41.50;;;26.60;;
49948;SDS011;35840;45.982;8.890;2023-02-22T09:15:11;41.13;;;26.33;;
49948;SDS011;35840;45.982;8.890;2023-02-22T09:17:38;40.15;;;27.90;;
49948;SDS011;35840;45.982;8.890;2023-02-22T09:20:05;46.20;;;26.10;;
49948;SDS011;35840;45.982;8.890;2023-02-22T09:22:33;43.35;;;25.75;;
49948;SDS011;35840;45.982;8.890;2023-02-22T09:25:00;47.33;;;26.60;;
49948;SDS011;35840;45.982;8.890;2023-02-22T09:27:41;51.65;;;29.08;;
49948;SDS011;35840;45.982;8.890;2023-02-22T09:30:20;45.97;;;27.83;;
49948;SDS011;35840;45.982;8.890;2023-02-22T09:32:56;39.25;;;26.25;;
49948;SDS011;35840;45.982;8.890;2023-02-22T09:35:25;47.17;;;28.48;;
49948;SDS011;35840;45.982;8.890;2023-02-22T09:37:56;45.78;;;27.50;;
49948;SDS011;35840;45.982;8.890;2023-02-22T09:40:25;46.05;;;28.98;;
49948;SDS011;35840;45.982;8.890;2023-02-22T09:43:01;40.72;;;26.88;;
49948;SDS011;35840;45.982;8.890;2023-02-22T09:45:53;48.22;;;28.83;;
49948;SDS011;35840;45.982;8.890;2023-02-22T09:48:32;48.22;;;29.67;;
49948;SDS011;35840;45.982;8.890;2023-02-22T09:51:02;44.65;;;26.38;;
49948;SDS011;35840;45.982;8.890;2023-02-22T09:53:44;42.60;;;28.65;;
49948;SDS011;35840;45.982;8.890;2023-02-22T09:56:15;51.35;;;27.85;;
49948;SDS011;35840;45.982;8.890;2023-02-22T09:58:46;41.42;;;27.77;;
49948;SDS011;35840;45.982;8.890;2023-02-22T10:04:00;42.60;;;25.90;;
49948;SDS011;35840;45.982;8.890;2023-02-22T10:06:41;49.35;;;29.40;;
49948;SDS011;35840;45.982;8.890;2023-02-22T10:09:31;47.47;;;27.73;;
49948;SDS011;35840;45.982;8.890;2023-02-22T10:12:08;42.15;;;26.70;;
49948;SDS011;35840;45.982;8.890;2023-02-22T10:25:38;45.20;;;26.17;;
49948;SDS011;35840;45.982;8.890;2023-02-22T10:28:23;41.15;;;26.88;;
49948;SDS011;35840;45.982;8.890;2023-02-22T10:30:59;45.13;;;27.42;;
49948;SDS011;35840;45.982;8.890;2023-02-22T10:33:38;46.70;;;28.23;;
49948;SDS011;35840;45.982;8.890;2023-02-22T10:36:15;45.53;;;27.75;;
49948;SDS011;35840;45.982;8.890;2023-02-22T10:38:58;43.05;;;28.20;;
49948;SDS011;35840;45.982;8.890;2023-02-22T10:43:56;49.47;;;27.75;;
49948;SDS011;35840;45.982;8.890;2023-02-22T10:46:23;40.70;;;25.73;;
49948;SDS011;35840;45.982;8.890;2023-02-22T10:48:54;45.38;;;25.77;;
49948;SDS011;35840;45.982;8.890;2023-02-22T10:51:25;40.53;;;25.98;;
49948;SDS011;35840;45.982;8.890;2023-02-22T10:53:55;36.40;;;23.95;;
49948;SDS011;35840;45.982;8.890;2023-02-22T10:56:31;41.33;;;24.90;;
49948;SDS011;35840;45.982;8.890;2023-02-22T10:58:58;39.20;;;25.13;;
49948;SDS011;35840;45.982;8.890;2023-02-22T11:06:25;37.28;;;23.58;;
49948;SDS011;35840;45.982;8.890;2023-02-22T11:09:02;35.72;;;24.42;;
49948;SDS011;35840;45.982;8.890;2023-02-22T11:11:41;35.80;;;23.92;;
49948;SDS011;35840;45.982;8.890;2023-02-22T11:14:23;35.05;;;21.73;;
49948;SDS011;35840;45.982;8.890;2023-02-22T11:16:55;39.70;;;22.48;;
49948;SDS011;35840;45.982;8.890;2023-02-22T11:19:27;29.70;;;18.98;;
49948;SDS011;35840;45.982;8.890;2023-02-22T11:21:58;28.83;;;18.08;;
49948;SDS011;35840;45.982;8.890;2023-02-22T11:24:52;28.45;;;18.85;;
49948;SDS011;35840;45.982;8.890;2023-02-22T11:27:25;34.55;;;18.27;;
49948;SDS011;35840;45.982;8.890;2023-02-22T11:29:54;34.20;;;20.52;;
49948;SDS011;35840;45.982;8.890;2023-02-22T11:32:35;33.20;;;20.45;;
49948;SDS011;35840;45.982;8.890;2023-02-22T11:35:29;35.22;;;20.30;;
49948;SDS011;35840;45.982;8.890;2023-02-22T11:38:15;34.95;;;20.35;;
49948;SDS011;35840;45.982;8.890;2023-02-22T11:40:47;32.03;;;19.65;;
49948;SDS011;35840;45.982;8.890;2023-02-22T11:43:43;28.60;;;18.73;;
49948;SDS011;35840;45.982;8.890;2023-02-22T11:46:18;32.65;;;19.75;;
49948;SDS011;35840;45.982;8.890;2023-02-22T11:48:55;30.83;;;18.45;;
49948;SDS011;35840;45.982;8.890;2023-02-22T11:56:39;32.38;;;21.15;;
49948;SDS011;35840;45.982;8.890;2023-02-22T11:59:13;30.77;;;19.33;;
49948;SDS011;35840;45.982;8.890;2023-02-22T12:04:21;29.02;;;19.10;;
49948;SDS011;35840;45.982;8.890;2023-02-22T12:14:43;30.48;;;20.17;;
49948;SDS011;35840;45.982;8.890;2023-02-22T12:19:55;31.77;;;19.15;;
49948;SDS011;35840;45.982;8.890;2023-02-22T12:22:41;30.80;;;21.13;;
49948;SDS011;35840;45.982;8.890;2023-02-22T12:25:22;33.92;;;21.08;;
49948;SDS011;35840;45.982;8.890;2023-02-22T12:27:53;32.50;;;20.92;;
49948;SDS011;35840;45.982;8.890;2023-02-22T12:32:55;33.38;;;21.05;;
49948;SDS011;35840;45.982;8.890;2023-02-22T12:35:27;36.80;;;20.73;;
49948;SDS011;35840;45.982;8.890;2023-02-22T12:43:32;33.03;;;19.60;;
49948;SDS011;35840;45.982;8.890;2023-02-22T12:54:15;27.63;;;18.67;;
49948;SDS011;35840;45.982;8.890;2023-02-22T12:57:10;29.42;;;17.60;;
49948;SDS011;35840;45.982;8.890;2023-02-22T12:59:49;29.95;;;19.50;;
49948;SDS011;35840;45.982;8.890;2023-02-22T13:05:03;31.25;;;20.05;;
49948;SDS011;35840;45.982;8.890;2023-02-22T13:16:27;23.13;;;13.88;;
49948;SDS011;35840;45.982;8.890;2023-02-22T13:19:25;23.40;;;14.30;;
49948;SDS011;35840;45.982;8.890;2023-02-22T13:22:07;17.48;;;13.20;;
49948;SDS011;35840;45.982;8.890;2023-02-22T13:30:19;24.55;;;14.30;;
49948;SDS011;35840;45.982;8.890;2023-02-22T13:56:49;22.75;;;14.10;;
49948;SDS011;35840;45.982;8.890;2023-02-22T13:59:27;24.83;;;14.93;;
49948;SDS011;35840;45.982;8.890;2023-02-22T14:01:54;21.30;;;13.82;;
49948;SDS011;35840;45.982;8.890;2023-02-22T14:07:02;23.55;;;14.85;;
49948;SDS011;35840;45.982;8.890;2023-02-22T14:09:51;30.98;;;17.23;;
49948;SDS011;35840;45.982;8.890;2023-02-22T14:25:55;25.73;;;16.42;;
49948;SDS011;35840;45.982;8.890;2023-02-22T14:28:36;23.70;;;16.98;;
49948;SDS011;35840;45.982;8.890;2023-02-22T14:31:07;25.42;;;15.43;;
49948;SDS011;35840;45.982;8.890;2023-02-22T14:39:36;23.10;;;15.23;;
49948;SDS011;35840;45.982;8.890;2023-02-22T14:50:17;20.63;;;13.32;;
49948;SDS011;35840;45.982;8.890;2023-02-22T14:53:03;25.98;;;13.40;;
49948;SDS011;35840;45.982;8.890;2023-02-22T14:55:45;19.30;;;12.95;;
49948;SDS011;35840;45.982;8.890;2023-02-22T14:58:19;23.05;;;14.70;;
49948;SDS011;35840;45.982;8.890;2023-02-22T15:00:50;28.23;;;15.70;;
49948;SDS011;35840;45.982;8.890;2023-02-22T15:03:29;23.75;;;14.52;;
49948;SDS011;35840;45.982;8.890;2023-02-22T15:06:04;22.02;;;13.90;;
49948;SDS011;35840;45.982;8.890;2023-02-22T15:08:40;21.95;;;15.40;;
49948;SDS011;35840;45.982;8.890;2023-02-22T15:11:24;22.48;;;15.13;;
49948;SDS011;35840;45.982;8.890;2023-02-22T15:13:56;23.27;;;13.65;;
49948;SDS011;35840;45.982;8.890;2023-02-22T15:16:28;21.98;;;14.07;;
49948;SDS011;35840;45.982;8.890;2023-02-22T15:18:58;23.63;;;15.32;;
49948;SDS011;35840;45.982;8.890;2023-02-22T15:21:29;20.02;;;14.20;;
49948;SDS011;35840;45.982;8.890;2023-02-22T15:23:59;23.70;;;13.90;;
49948;SDS011;35840;45.982;8.890;2023-02-22T15:26:30;22.45;;;13.82;;
49948;SDS011;35840;45.982;8.890;2023-02-22T15:29:01;23.17;;;14.65;;
49948;SDS011;35840;45.982;8.890;2023-02-22T15:31:34;22.52;;;13.30;;
49948;SDS011;35840;45.982;8.890;2023-02-22T15:34:09;22.48;;;13.73;;
49948;SDS011;35840;45.982;8.890;2023-02-22T15:36:36;20.95;;;13.60;;
49948;SDS011;35840;45.982;8.890;2023-02-22T15:39:03;21.83;;;14.02;;
49948;SDS011;35840;45.982;8.890;2023-02-22T15:41:34;24.92;;;14.45;;
49948;SDS011;35840;45.982;8.890;2023-02-22T15:44:08;25.25;;;13.48;;
49948;SDS011;35840;45.982;8.890;2023-02-22T15:46:48;22.42;;;13.82;;
49948;SDS011;35840;45.982;8.890;2023-02-22T15:51:43;28.30;;;15.52;;
49948;SDS011;35840;45.982;8.890;2023-02-22T15:54:11;24.77;;;15.90;;
49948;SDS011;35840;45.982;8.890;2023-02-22T15:56:52;27.35;;;16.02;;
49948;SDS011;35840;45.982;8.890;2023-02-22T15:59:23;22.42;;;15.13;;
49948;SDS011;35840;45.982;8.890;2023-02-22T16:01:55;26.42;;;16.88;;
49948;SDS011;35840;45.982;8.890;2023-02-22T16:04:28;26.25;;;15.40;;
49948;SDS011;35840;45.982;8.890;2023-02-22T16:07:06;33.10;;;17.38;;
49948;SDS011;35840;45.982;8.890;2023-02-22T16:14:46;24.60;;;16.55;;
49948;SDS011;35840;45.982;8.890;2023-02-22T16:19:50;28.95;;;16.17;;
49948;SDS011;35840;45.982;8.890;2023-02-22T16:22:31;23.73;;;15.93;;
49948;SDS011;35840;45.982;8.890;2023-02-22T16:27:43;29.73;;;18.85;;
49948;SDS011;35840;45.982;8.890;2023-02-22T16:32:52;31.75;;;18.38;;
49948;SDS011;35840;45.982;8.890;2023-02-22T16:35:21;28.05;;;18.30;;
49948;SDS011;35840;45.982;8.890;2023-02-22T16:38:00;31.15;;;19.27;;
49948;SDS011;35840;45.982;8.890;2023-02-22T16:40:37;29.13;;;17.75;;
49948;SDS011;35840;45.982;8.890;2023-02-22T16:43:07;32.83;;;19.40;;
49948;SDS011;35840;45.982;8.890;2023-02-22T16:45:39;30.35;;;18.75;;
49948;SDS011;35840;45.982;8.890;2023-02-22T16:48:13;29.58;;;18.15;;
49948;SDS011;35840;45.982;8.890;2023-02-22T16:50:42;28.35;;;17.73;;
49948;SDS011;35840;45.982;8.890;2023-02-22T16:53:09;27.98;;;17.83;;
49948;SDS011;35840;45.982;8.890;2023-02-22T16:55:36;26.33;;;16.95;;
49948;SDS011;35840;45.982;8.890;2023-02-22T16:58:03;30.17;;;16.88;;
49948;SDS011;35840;45.982;8.890;2023-02-22T17:00:30;33.78;;;19.13;;
49948;SDS011;35840;45.982;8.890;2023-02-22T17:02:57;33.85;;;18.63;;
49948;SDS011;35840;45.982;8.890;2023-02-22T17:05:25;32.63;;;19.20;;
49948;SDS011;35840;45.982;8.890;2023-02-22T17:07:51;33.28;;;19.52;;
49948;SDS011;35840;45.982;8.890;2023-02-22T17:10:18;34.35;;;20.88;;
49948;SDS011;35840;45.982;8.890;2023-02-22T17:12:45;33.08;;;20.40;;
49948;SDS011;35840;45.982;8.890;2023-02-22T17:15:16;34.13;;;21.30;;
49948;SDS011;35840;45.982;8.890;2023-02-22T17:17:48;29.38;;;19.40;;
49948;SDS011;35840;45.982;8.890;2023-02-22T17:20:16;36.13;;;23.38;;
49948;SDS011;35840;45.982;8.890;2023-02-22T17:23:10;37.95;;;22.10;;
49948;SDS011;35840;45.982;8.890;2023-02-22T17:25:42;33.97;;;21.95;;
49948;SDS011;35840;45.982;8.890;2023-02-22T17:28:10;39.63;;;26.60;;
49948;SDS011;35840;45.982;8.890;2023-02-22T17:30:38;36.42;;;24.08;;
49948;SDS011;35840;45.982;8.890;2023-02-22T17:33:06;38.97;;;21.90;;
49948;SDS011;35840;45.982;8.890;2023-02-22T17:35:35;40.72;;;23.38;;
49948;SDS011;35840;45.982;8.890;2023-02-22T17:38:04;43.05;;;24.10;;
49948;SDS011;35840;45.982;8.890;2023-02-22T17:40:32;37.50;;;23.27;;